Time;durP1;ratioP1;P1;durP2;ratioP2;P2;SDS_P1;SDS_P2;PMS_P1;PMS_P2;Temp;Humidity;BMP_temperature;BMP_pressure;BME280_temperature;BME280_humidity;BME280_pressure;Samples;Min_cycle;Max_cycle;Signal;HPM_P1;HPM_P2
2022/11/04 00:01:44;;;;;;;1.30;1.20;;;;;;;9.40;94.08;100076.94;4971370;28;20031;-73
2022/11/04 00:04:12;;;;;;;2.28;0.95;;;;;;;9.35;93.92;100085.47;4967952;28;20053;-73
2022/11/04 00:06:38;;;;;;;3.58;1.42;;;;;;;9.29;93.59;100074.25;4972600;28;20166;-73
2022/11/04 00:09:07;;;;;;;1.92;1.25;;;;;;;9.30;93.76;100070.53;4972118;28;20518;-74
2022/11/04 00:14:17;;;;;;;3.28;1.60;;;;;;;9.27;94.48;100077.06;4970633;28;20054;-73
2022/11/04 00:19:27;;;;;;;2.60;1.58;;;;;;;9.26;94.54;100082.63;4965120;28;20181;-73
2022/11/04 00:30:08;;;;;;;5.93;2.22;;;;;;;9.28;94.62;100094.19;4969218;28;20125;-73
2022/11/04 00:35:18;;;;;;;5.90;3.53;;;;;;;9.24;95.53;100107.19;4971798;28;20078;-73
2022/11/04 00:37:44;;;;;;;7.43;4.35;;;;;;;9.20;95.79;100108.41;4967434;28;20050;-73
2022/11/04 00:40:13;;;;;;;9.25;4.88;;;;;;;9.19;96.25;100110.25;4953040;29;20031;-73
2022/11/04 00:42:38;;;;;;;10.88;6.05;;;;;;;9.21;97.33;100099.25;4951371;29;20074;-73
2022/11/04 00:45:05;;;;;;;11.13;6.90;;;;;;;9.23;97.37;100099.13;4953643;28;20428;-72
2022/11/04 00:47:30;;;;;;;11.30;7.80;;;;;;;9.25;98.42;100111.63;4951225;29;20031;-72
2022/11/04 00:49:56;;;;;;;12.07;7.68;;;;;;;9.27;98.23;100112.34;4952948;28;20093;-72
2022/11/04 00:52:21;;;;;;;11.55;8.75;;;;;;;9.27;98.80;100106.06;4969175;28;20138;-72
2022/11/04 00:54:47;;;;;;;12.00;7.95;;;;;;;9.27;98.51;100112.34;4951531;28;20523;-72
2022/11/04 00:57:13;;;;;;;13.95;9.15;;;;;;;9.25;98.51;100114.31;4952610;29;20047;-72
2022/11/04 00:59:39;;;;;;;12.30;8.32;;;;;;;9.28;98.50;100118.63;4955127;28;20042;-72
2022/11/04 01:02:05;;;;;;;12.85;9.20;;;;;;;9.30;98.52;100122.09;4971479;28;20515;-71
2022/11/04 01:04:31;;;;;;;16.45;8.50;;;;;;;9.31;98.92;100123.81;4947680;29;20134;-72
2022/11/04 01:06:56;;;;;;;20.17;8.70;;;;;;;9.32;98.81;100122.84;4954344;28;20514;-72
2022/11/04 01:09:21;;;;;;;11.07;7.97;;;;;;;9.31;98.50;100132.84;4970389;28;20038;-71
2022/11/04 01:11:47;;;;;;;12.52;8.00;;;;;;;9.29;98.60;100125.81;4969390;28;20463;-71
2022/11/04 01:14:13;;;;;;;15.85;9.02;;;;;;;9.29;98.31;100134.81;4970118;28;20031;-72
2022/11/04 01:16:38;;;;;;;13.80;8.07;;;;;;;9.29;98.52;100133.97;4950616;29;20483;-71
2022/11/04 01:19:04;;;;;;;11.05;7.72;;;;;;;9.26;98.40;100128.75;4950700;28;20039;-72
2022/11/04 01:21:29;;;;;;;11.32;8.25;;;;;;;9.17;98.73;100141.19;4951880;29;20043;-73
2022/11/04 01:23:55;;;;;;;12.68;7.97;;;;;;;9.17;98.81;100149.34;4966333;28;20042;-73
2022/11/04 01:26:23;;;;;;;14.35;7.93;;;;;;;9.16;98.13;100153.03;4970639;28;20085;-73
2022/11/04 01:28:50;;;;;;;14.15;8.15;;;;;;;9.14;98.61;100158.59;4970647;28;20050;-73
2022/11/04 01:31:20;;;;;;;15.32;8.70;;;;;;;9.11;99.27;100156.09;4961266;28;20030;-71
2022/11/04 01:33:46;;;;;;;14.15;8.25;;;;;;;9.10;98.63;100154.38;4970989;28;20097;-72
2022/11/04 01:36:12;;;;;;;15.27;8.75;;;;;;;9.10;98.93;100140.81;4970637;28;20039;-72
2022/11/04 01:38:37;;;;;;;16.83;8.48;;;;;;;9.06;98.86;100150.19;4959243;28;20078;-73
2022/11/04 01:41:04;;;;;;;15.30;7.95;;;;;;;9.04;98.93;100143.13;4950049;29;20058;-73
2022/11/04 01:43:49;;;;;;;16.67;8.75;;;;;;;9.03;98.46;100146.81;4951646;28;20082;-73
2022/11/04 01:46:37;;;;;;;12.77;7.72;;;;;;;8.97;98.74;100150.88;4951624;28;20117;-72
2022/11/04 01:49:23;;;;;;;18.70;9.68;;;;;;;8.90;98.53;100146.91;4952004;28;20042;-73
2022/11/04 01:51:53;;;;;;;15.68;7.05;;;;;;;8.82;98.11;100146.66;4966808;28;20050;-73
2022/11/04 01:54:19;;;;;;;13.15;7.40;;;;;;;8.76;98.74;100147.09;4953117;28;20039;-71
2022/11/04 01:56:46;;;;;;;13.23;7.22;;;;;;;8.73;98.39;100147.34;4937119;28;20502;-72
2022/11/04 01:59:25;;;;;;;10.82;6.10;;;;;;;8.64;99.07;100148.91;4969756;28;20120;-72
2022/11/04 02:01:50;;;;;;;10.68;6.40;;;;;;;8.56;98.41;100146.75;4970208;28;20066;-72
2022/11/04 02:04:25;;;;;;;13.45;6.28;;;;;;;8.53;99.21;100146.13;4983908;28;20490;-73
2022/11/04 02:07:04;;;;;;;13.43;5.45;;;;;;;8.50;98.77;100147.22;4968560;28;20042;-74
2022/11/04 02:09:31;;;;;;;9.35;5.10;;;;;;;8.44;98.64;100155.84;4952213;28;20098;-74
2022/11/04 02:14:41;;;;;;;10.18;5.22;;;;;;;8.34;98.98;100161.00;4956613;28;20447;-72
2022/11/04 02:17:18;;;;;;;9.82;4.35;;;;;;;8.32;98.83;100157.56;4959556;28;20380;-72
2022/11/04 02:20:10;;;;;;;10.63;4.78;;;;;;;8.28;99.03;100153.34;4958157;28;20456;-72
2022/11/04 02:23:05;;;;;;;8.07;4.43;;;;;;;8.26;98.92;100159.88;4959796;28;20035;-72
2022/11/04 02:25:44;;;;;;;9.95;4.53;;;;;;;8.21;98.53;100160.22;4956921;28;20375;-73
2022/11/04 02:28:21;;;;;;;11.57;4.40;;;;;;;8.16;99.00;100157.84;4969333;28;20398;-70
2022/11/04 02:30:53;;;;;;;8.05;3.95;;;;;;;8.12;98.61;100163.59;4957159;28;20483;-72
2022/11/04 02:33:25;;;;;;;10.57;4.00;;;;;;;8.08;98.43;100160.25;4951270;28;20045;-73
2022/11/04 02:35:55;;;;;;;9.60;4.00;;;;;;;8.06;99.02;100175.72;4951260;28;20487;-73
2022/11/04 02:38:28;;;;;;;6.90;3.83;;;;;;;8.03;98.44;100178.66;4951068;28;20385;-72
2022/11/04 02:41:02;;;;;;;6.30;3.45;;;;;;;8.00;98.93;100169.91;4949643;29;20069;-72
2022/11/04 02:43:47;;;;;;;7.00;3.55;;;;;;;7.96;98.98;100176.50;4950720;28;20031;-73
2022/11/04 02:46:34;;;;;;;11.93;4.45;;;;;;;7.92;99.42;100176.72;4959403;28;20448;-72
2022/11/04 02:49:15;;;;;;;7.85;4.05;;;;;;;7.91;99.24;100174.13;4958800;28;20035;-71
2022/11/04 02:51:52;;;;;;;8.50;3.80;;;;;;;7.88;99.54;100177.06;4959152;28;20035;-72
2022/11/04 02:54:33;;;;;;;13.00;4.10;;;;;;;7.85;99.21;100174.59;4958676;28;20430;-73
2022/11/04 02:57:03;;;;;;;8.57;3.70;;;;;;;7.83;99.47;100181.94;4960158;28;20049;-72
2022/11/04 02:59:38;;;;;;;7.72;3.63;;;;;;;7.80;99.84;100165.94;4958896;28;20398;-73
2022/11/04 03:02:09;;;;;;;9.48;3.05;;;;;;;7.74;100.00;100169.94;4961376;28;20043;-73
2022/11/04 03:04:40;;;;;;;7.20;3.20;;;;;;;7.70;99.71;100160.31;4957399;28;20051;-74
2022/11/04 03:07:10;;;;;;;4.35;2.83;;;;;;;7.73;100.00;100175.44;4960513;28;20114;-72
2022/11/04 03:09:39;;;;;;;9.15;2.90;;;;;;;7.72;100.00;100162.91;4982185;28;20078;-73
2022/11/04 03:12:14;;;;;;;5.55;2.78;;;;;;;7.71;99.59;100185.53;4957499;28;20027;-73
2022/11/04 03:14:51;;;;;;;9.55;2.60;;;;;;;7.65;99.94;100181.44;4962118;28;20041;-72
2022/11/04 03:17:31;;;;;;;7.22;2.58;;;;;;;7.69;100.00;100182.91;4960115;28;20046;-73
2022/11/04 03:19:58;;;;;;;6.13;2.78;;;;;;;7.65;100.00;100187.72;4965310;28;20034;-72
2022/11/04 03:22:31;;;;;;;4.97;2.55;;;;;;;7.62;100.00;100196.03;4961645;28;20047;-73
2022/11/04 03:24:57;;;;;;;5.82;2.25;;;;;;;7.59;99.86;100196.25;4971685;28;20367;-73
2022/11/04 03:27:33;;;;;;;4.95;2.40;;;;;;;7.57;100.00;100197.34;4972442;28;20035;-73
2022/11/04 03:30:10;;;;;;;5.25;2.28;;;;;;;7.51;99.78;100197.78;4965917;28;20039;-73
2022/11/04 03:32:50;;;;;;;6.03;2.28;;;;;;;7.49;99.61;100199.72;4953533;29;20062;-73
2022/11/04 03:35:16;;;;;;;10.50;2.60;;;;;;;7.45;99.75;100199.06;4960222;28;20525;-73
2022/11/04 03:37:43;;;;;;;4.70;2.67;;;;;;;7.40;100.00;100198.50;4960703;28;20026;-72
2022/11/04 03:40:10;;;;;;;7.93;3.00;;;;;;;7.34;100.00;100194.41;4973495;28;20125;-73
2022/11/04 03:42:42;;;;;;;9.23;2.70;;;;;;;7.31;99.88;100201.84;4972289;28;20026;-73
2022/11/04 03:45:09;;;;;;;7.47;2.70;;;;;;;7.25;99.68;100200.44;4970875;28;20188;-73
2022/11/04 03:47:36;;;;;;;6.40;2.28;;;;;;;7.25;100.00;100200.44;4973296;28;20038;-72
2022/11/04 03:50:11;;;;;;;5.38;2.40;;;;;;;7.21;99.78;100204.34;4971283;28;20578;-73
2022/11/04 03:52:36;;;;;;;5.50;2.92;;;;;;;7.20;99.92;100204.44;4954893;28;20467;-72
2022/11/04 03:55:03;;;;;;;6.88;2.17;;;;;;;7.18;99.80;100198.25;4973235;28;20038;-72
2022/11/04 03:57:51;;;;;;;4.15;2.88;;;;;;;7.16;100.00;100201.09;4972017;28;20038;-73
2022/11/04 04:00:19;;;;;;;8.45;2.63;;;;;;;7.11;100.00;100203.25;4972556;28;20513;-73
2022/11/04 04:02:58;;;;;;;10.18;2.97;;;;;;;7.08;99.98;100206.13;4972999;28;20394;-73
2022/11/04 04:05:30;;;;;;;6.30;2.20;;;;;;;7.05;99.62;100200.97;4970694;28;20101;-72
2022/11/04 04:08:15;;;;;;;3.53;2.70;;;;;;;7.02;99.58;100201.16;4970828;28;20031;-73
2022/11/04 04:10:51;;;;;;;5.00;2.20;;;;;;;6.96;99.47;100209.69;4973123;28;20751;-73
2022/11/04 04:13:44;;;;;;;6.90;2.70;;;;;;;6.94;100.00;100203.50;4965205;28;20069;-73
2022/11/04 04:16:22;;;;;;;;;;;;;;;6.94;99.26;100209.78;4967450;28;20084;-73
2022/11/04 04:19:02;;;;;;;6.65;2.10;;;;;;;6.84;99.30;100212.25;4968054;28;19914;-73
2022/11/04 04:21:41;;;;;;;8.45;2.58;;;;;;;6.80;99.98;100209.84;4952697;28;20039;-74
2022/11/04 04:29:43;;;;;;;3.88;2.70;;;;;;;6.69;100.00;100228.63;4967957;28;20391;-73
2022/11/04 04:32:09;;;;;;;4.50;2.30;;;;;;;6.64;99.65;100224.38;4953300;29;20077;-72
2022/11/04 04:34:35;;;;;;;3.35;2.13;;;;;;;6.67;99.62;100230.56;4952258;28;20035;-72
2022/11/04 04:37:03;;;;;;;3.50;2.00;;;;;;;6.65;100.00;100236.06;4953279;29;20480;-73
2022/11/04 04:45:31;;;;;;;6.13;2.65;;;;;;;6.57;99.70;100238.41;4961569;28;20043;-73
2022/11/04 04:47:56;;;;;;;3.90;1.95;;;;;;;6.51;99.15;100238.81;4971586;28;20060;-73
2022/11/04 04:50:26;;;;;;;9.05;3.17;;;;;;;6.46;99.14;100233.72;4963480;28;20561;-73
2022/11/04 04:52:54;;;;;;;15.70;2.85;;;;;;;6.44;99.57;100241.06;4967570;28;20289;-72
2022/11/04 04:55:20;;;;;;;3.60;1.95;;;;;;;6.39;98.81;100235.94;4951597;29;20039;-72
2022/11/04 04:57:45;;;;;;;5.40;2.50;;;;;;;6.34;99.03;100240.78;4955890;28;20038;-73
2022/11/04 05:00:16;;;;;;;5.70;2.60;;;;;;;6.34;99.93;100239.91;4969630;28;20041;-74
2022/11/04 05:02:42;;;;;;;4.72;1.85;;;;;;;6.31;99.58;100251.78;4971168;28;20438;-72
2022/11/04 05:05:12;;;;;;;3.70;1.98;;;;;;;6.26;99.17;100250.34;4960743;28;20395;-73
2022/11/04 05:07:37;;;;;;;4.13;1.70;;;;;;;6.23;99.14;100250.53;4951778;28;20117;-73
2022/11/04 05:10:03;;;;;;;9.15;2.65;;;;;;;6.20;98.77;100250.72;4952633;29;20487;-72
2022/11/04 05:13:24;;;;;;;4.93;2.17;;;;;;;6.18;98.42;100252.66;4952444;29;20098;-73
2022/11/04 05:15:14;;;;;;;3.53;2.08;;;;;;;6.12;99.37;100260.19;4952784;28;20034;-73
2022/11/04 05:17:39;;;;;;;5.82;2.20;;;;;;;6.13;98.83;100261.06;4952367;29;20487;-73
2022/11/04 05:20:05;;;;;;;3.08;1.73;;;;;;;6.09;98.06;100264.91;4958114;28;20053;-74
2022/11/04 05:22:30;;;;;;;3.25;1.88;;;;;;;6.09;97.89;100268.47;4969405;28;20049;-73
2022/11/04 05:24:56;;;;;;;7.10;1.88;;;;;;;6.09;98.05;100270.31;4951130;29;20463;-73
2022/11/04 05:27:21;;;;;;;3.47;2.00;;;;;;;6.09;97.75;100278.41;4955865;28;20102;-73
2022/11/04 05:29:46;;;;;;;7.97;2.45;;;;;;;6.08;98.33;100279.38;4966080;28;20054;-74
2022/11/04 05:32:12;;;;;;;10.90;2.65;;;;;;;6.11;98.39;100285.47;4969481;28;20069;-73
2022/11/04 05:34:37;;;;;;;5.22;2.28;;;;;;;6.13;98.45;100286.22;4966226;28;20074;-73
2022/11/04 05:37:02;;;;;;;4.85;1.88;;;;;;;6.16;98.27;100287.88;4954042;28;20050;-73
2022/11/04 05:39:28;;;;;;;6.18;2.30;;;;;;;6.20;98.39;100292.13;4936569;29;20066;-74
2022/11/04 05:41:53;;;;;;;6.45;2.38;;;;;;;6.24;98.32;100292.78;4952032;28;20043;-73
2022/11/04 05:44:18;;;;;;;4.30;2.75;;;;;;;6.27;98.90;100289.91;4965860;28;20023;-73
2022/11/04 05:46:44;;;;;;;3.63;2.30;;;;;;;6.29;98.32;100294.22;4952067;28;20122;-73
2022/11/04 05:49:09;;;;;;;4.55;2.00;;;;;;;6.30;98.58;100287.00;4952906;28;20042;-74
2022/11/04 05:51:35;;;;;;;3.53;2.33;;;;;;;6.36;98.14;100295.56;4969796;28;20038;-73
2022/11/04 05:54:00;;;;;;;6.05;2.22;;;;;;;6.41;98.20;100297.13;4955945;28;20384;-73
2022/11/04 05:56:26;;;;;;;5.45;2.88;;;;;;;6.44;98.19;100296.94;4952156;29;20039;-73
2022/11/04 05:58:51;;;;;;;5.43;2.88;;;;;;;6.45;nan;100294.13;4951758;28;20035;-73
2022/11/04 06:01:29;;;;;;;12.00;2.80;;;;;;;6.52;98.28;100310.78;4965397;28;20031;-73
2022/11/04 06:03:55;;;;;;;7.22;2.67;;;;;;;6.53;98.01;100302.63;4970863;28;20498;-73
2022/11/04 06:06:21;;;;;;;6.32;2.80;;;;;;;6.52;98.69;100302.69;4969920;28;20067;-73
2022/11/04 06:08:49;;;;;;;5.15;2.88;;;;;;;6.54;98.45;100304.34;4958922;28;20039;-73
2022/11/04 06:11:14;;;;;;;6.65;2.60;;;;;;;6.53;98.22;100307.16;4963125;28;20031;-73
2022/11/04 06:13:40;;;;;;;7.03;3.30;;;;;;;6.53;98.67;100310.72;4953922;28;20494;-73
2022/11/04 06:16:05;;;;;;;4.25;2.78;;;;;;;6.55;98.34;100313.31;4962190;28;20038;-73
2022/11/04 06:18:30;;;;;;;7.10;3.22;;;;;;;6.53;98.25;100304.44;4959064;28;20051;-73
2022/11/04 06:21:12;;;;;;;9.27;4.05;;;;;;;6.58;98.68;100310.44;4959459;28;20085;-73
2022/11/04 06:23:38;;;;;;;5.60;3.10;;;;;;;6.56;98.42;100310.50;4960590;28;20185;-73
2022/11/04 06:26:03;;;;;;;5.95;3.75;;;;;;;6.57;98.25;100314.06;4984345;28;20057;-72
2022/11/04 06:28:29;;;;;;;8.45;3.60;;;;;;;6.56;98.45;100313.19;4970131;28;20073;-73
2022/11/04 06:30:57;;;;;;;9.23;3.85;;;;;;;6.56;98.46;100317.75;4964310;28;20042;-73
2022/11/04 06:33:22;;;;;;;6.55;3.83;;;;;;;6.54;98.94;100325.97;4949826;29;20066;-73
2022/11/04 06:35:47;;;;;;;5.15;2.97;;;;;;;6.53;98.92;100326.06;4951421;28;20075;-73
2022/11/04 06:38:13;;;;;;;5.63;3.78;;;;;;;6.53;98.55;100332.34;4951314;28;20174;-73
2022/11/04 06:40:38;;;;;;;8.73;3.05;;;;;;;6.52;98.49;100335.97;4949669;29;20035;-73
2022/11/04 06:43:03;;;;;;;9.13;3.72;;;;;;;6.51;98.32;100328.84;4953629;28;20042;-73
2022/11/04 06:45:29;;;;;;;6.10;3.15;;;;;;;6.51;98.13;100338.78;4959820;28;20125;-73
2022/11/04 06:47:54;;;;;;;4.43;2.80;;;;;;;6.52;98.00;100345.94;4953685;28;20459;-72
2022/11/04 06:50:20;;;;;;;7.43;3.40;;;;;;;6.50;97.86;100339.75;4954813;28;20097;-73
2022/11/04 06:52:45;;;;;;;6.43;3.30;;;;;;;6.53;97.78;100348.56;4958950;28;20423;-72
2022/11/04 06:55:10;;;;;;;7.75;3.33;;;;;;;6.55;98.05;100354.72;4962772;28;20089;-72
2022/11/04 06:57:36;;;;;;;8.50;4.43;;;;;;;6.55;98.13;100356.56;4963339;28;20042;-73
2022/11/04 07:00:02;;;;;;;9.95;4.40;;;;;;;6.57;98.60;100363.56;4965773;28;20035;-73
2022/11/04 07:02:27;;;;;;;12.35;4.05;;;;;;;6.57;99.03;100366.28;4961894;28;20129;-73
2022/11/04 07:04:52;;;;;;;8.15;3.45;;;;;;;6.61;99.09;100375.06;4967021;28;20558;-72
2022/11/04 07:07:18;;;;;;;6.03;3.40;;;;;;;6.68;99.11;100373.72;4967678;28;20034;-73
2022/11/04 07:09:43;;;;;;;8.63;3.78;;;;;;;6.78;99.12;100366.75;4950903;28;20109;-73
2022/11/04 07:12:08;;;;;;;8.40;3.78;;;;;;;6.88;99.57;100370.59;4965912;28;20078;-73
2022/11/04 07:14:34;;;;;;;8.65;4.40;;;;;;;6.96;99.33;100371.94;4957345;28;20118;-73
2022/11/04 07:16:59;;;;;;;7.90;3.78;;;;;;;7.06;99.66;100375.78;4952058;28;20074;-73
2022/11/04 07:19:24;;;;;;;9.57;3.67;;;;;;;7.13;99.03;100377.09;4965501;28;20069;-73
2022/11/04 07:21:50;;;;;;;7.38;4.85;;;;;;;7.21;99.34;100385.59;4950408;28;20050;-73
2022/11/04 07:24:15;;;;;;;7.75;3.95;;;;;;;7.27;98.93;100378.91;4950568;28;20050;-73
2022/11/04 07:26:41;;;;;;;7.82;3.88;;;;;;;7.31;98.84;100386.72;4949953;29;20048;-73
2022/11/04 07:29:07;;;;;;;12.60;4.47;;;;;;;7.39;99.23;100389.78;4950275;28;20039;-73
2022/11/04 07:31:33;;;;;;;7.63;4.07;;;;;;;7.48;98.85;100390.16;4966387;28;20031;-73
2022/11/04 07:33:58;;;;;;;8.43;4.03;;;;;;;7.56;99.88;100387.81;4967867;28;20045;-72
2022/11/04 07:36:24;;;;;;;13.63;4.68;;;;;;;7.63;99.44;100387.25;4968571;28;20744;-73
2022/11/04 07:38:49;;;;;;;9.27;4.63;;;;;;;7.68;99.62;100387.81;4961647;28;20039;-72
2022/11/04 07:41:15;;;;;;;8.45;4.93;;;;;;;7.77;99.93;100389.03;4950971;28;20093;-73
2022/11/04 07:43:40;;;;;;;14.68;6.45;;;;;;;7.86;100.00;100392.97;4969128;28;20045;-72
2022/11/04 07:46:11;;;;;;;14.05;5.53;;;;;;;7.93;99.46;100394.28;4968661;28;20037;-73
2022/11/04 07:48:37;;;;;;;9.27;5.70;;;;;;;8.00;99.28;100398.28;4966821;28;20038;-72
2022/11/04 07:51:05;;;;;;;13.23;6.68;;;;;;;8.07;100.00;100402.31;4967628;28;20039;-73
2022/11/04 07:53:30;;;;;;;13.00;7.03;;;;;;;8.14;99.86;100402.75;4960642;28;20153;-73
2022/11/04 07:55:56;;;;;;;12.63;6.10;;;;;;;8.21;99.73;100403.19;4950344;29;20032;-73
2022/11/04 07:58:22;;;;;;;15.10;4.95;;;;;;;8.24;99.08;100406.56;4948309;29;20075;-72
2022/11/04 08:00:48;;;;;;;8.05;4.80;;;;;;;8.32;99.79;100398.75;4950329;28;20028;-73
2022/11/04 08:03:14;;;;;;;7.95;3.80;;;;;;;8.37;99.04;100401.19;4948295;28;20498;-73
2022/11/04 08:05:39;;;;;;;9.32;4.38;;;;;;;8.48;99.52;100409.41;4953798;28;20124;-72
2022/11/04 08:08:05;;;;;;;10.98;4.40;;;;;;;8.51;99.42;100406.50;4953857;28;20039;-72
2022/11/04 08:10:30;;;;;;;9.52;4.47;;;;;;;8.62;99.53;100419.28;4951974;29;20023;-73
2022/11/04 08:12:56;;;;;;;10.75;4.50;;;;;;;8.68;98.71;100414.31;4952604;28;20122;-73
2022/11/04 08:15:21;;;;;;;10.40;4.80;;;;;;;8.74;98.43;100418.41;4953650;28;20039;-73
2022/11/04 08:17:46;;;;;;;7.68;4.32;;;;;;;8.84;97.81;100424.91;4955463;28;20018;-72
2022/11/04 08:20:12;;;;;;;8.50;4.45;;;;;;;8.93;98.73;100428.81;4969034;28;20034;-72
2022/11/04 08:22:37;;;;;;;8.48;4.95;;;;;;;8.99;98.05;100428.34;4971596;28;20444;-73
2022/11/04 08:25:03;;;;;;;10.75;4.70;;;;;;;9.06;98.64;100426.06;4972258;28;20042;-72
2022/11/04 08:27:29;;;;;;;10.90;4.40;;;;;;;9.15;98.04;100445.28;4971565;28;20027;-73
2022/11/04 08:29:54;;;;;;;13.88;5.10;;;;;;;9.28;97.92;100441.63;4970571;28;20136;-72
2022/11/04 08:32:19;;;;;;;8.85;4.30;;;;;;;9.40;97.28;100440.75;4972603;28;20379;-73
2022/11/04 08:34:45;;;;;;;8.60;4.60;;;;;;;9.52;96.76;100449.84;4971777;28;20039;-72
2022/11/04 08:37:14;;;;;;;17.15;5.47;;;;;;;9.66;96.82;100447.81;4972433;28;20039;-72
2022/11/04 08:39:40;;;;;;;8.70;4.43;;;;;;;9.78;97.10;100448.72;4951093;29;20158;-72
2022/11/04 08:42:06;;;;;;;13.65;5.88;;;;;;;9.93;96.23;100458.47;4952715;28;20047;-72
2022/11/04 08:44:32;;;;;;;12.15;4.85;;;;;;;10.04;96.03;100456.75;4953325;28;20492;-72
2022/11/04 08:46:58;;;;;;;11.70;4.90;;;;;;;10.10;96.18;100449.00;4952759;29;20483;-73
2022/11/04 08:49:24;;;;;;;12.98;4.88;;;;;;;10.21;94.91;100454.50;4953460;28;20049;-72
2022/11/04 08:51:55;;;;;;;11.93;4.40;;;;;;;10.29;95.01;100458.47;4968108;28;20038;-73
2022/11/04 08:54:21;;;;;;;8.45;3.97;;;;;;;10.34;94.00;100453.56;4956610;28;20043;-72
2022/11/04 08:56:46;;;;;;;14.80;4.43;;;;;;;10.35;93.40;100456.16;4952774;29;20111;-72
2022/11/04 08:59:11;;;;;;;11.85;4.10;;;;;;;10.35;93.44;100463.44;4951344;29;20047;-72
2022/11/04 09:01:37;;;;;;;10.27;3.55;;;;;;;10.32;92.37;100470.00;4952044;28;20078;-72
2022/11/04 09:04:04;;;;;;;13.90;4.57;;;;;;;10.33;92.86;100476.28;4951246;29;20118;-72
2022/11/04 09:06:35;;;;;;;10.90;4.70;;;;;;;10.34;93.11;100483.47;4971496;28;20053;-72
2022/11/04 09:09:03;;;;;;;12.48;3.80;;;;;;;10.29;92.47;100491.09;4959509;28;20483;-72
2022/11/04 09:11:33;;;;;;;12.98;5.13;;;;;;;10.29;92.08;100489.25;4952701;28;20443;-72
2022/11/04 09:14:02;;;;;;;11.95;3.72;;;;;;;10.27;92.27;100501.25;4971041;28;20039;-72
2022/11/04 09:16:29;;;;;;;11.75;4.45;;;;;;;10.24;92.36;100499.63;4953509;28;20051;-73
2022/11/04 09:18:56;;;;;;;8.38;4.35;;;;;;;10.18;92.37;100503.66;4952984;28;20482;-72
2022/11/04 09:21:22;;;;;;;16.98;5.25;;;;;;;10.25;92.55;100505.91;4969451;28;20042;-72
2022/11/04 09:23:47;;;;;;;11.65;4.70;;;;;;;10.32;93.55;100496.31;4961069;28;20027;-71
2022/11/04 09:26:14;;;;;;;12.00;5.03;;;;;;;10.39;92.61;100498.44;4952181;28;20123;-72
2022/11/04 09:28:40;;;;;;;13.30;4.95;;;;;;;10.46;92.89;100504.28;4969846;28;20491;-72
2022/11/04 09:31:09;;;;;;;20.00;4.88;;;;;;;10.50;92.51;100503.06;4969421;28;20089;-72
2022/11/04 09:33:34;;;;;;;12.50;5.20;;;;;;;10.52;92.83;100509.22;4969646;28;20027;-72
2022/11/04 09:36:00;;;;;;;13.25;4.85;;;;;;;10.53;91.87;100505.53;4968703;28;20042;-72
2022/11/04 09:38:26;;;;;;;14.00;4.90;;;;;;;10.62;93.00;100517.53;4962591;28;20099;-72
2022/11/04 09:40:51;;;;;;;12.98;4.90;;;;;;;10.69;93.03;100532.41;4971189;28;20035;-71
2022/11/04 09:44:04;;;;;;;11.55;4.97;;;;;;;10.79;92.87;100529.84;4970606;28;20065;-71
2022/11/04 09:46:32;;;;;;;13.82;5.18;;;;;;;10.82;92.78;100530.47;4934520;28;20134;-71
2022/11/04 09:49:01;;;;;;;15.70;5.47;;;;;;;10.89;91.66;100530.84;4969693;28;20034;-71
2022/11/04 09:51:27;;;;;;;15.65;5.95;;;;;;;10.99;92.76;100546.31;4970757;28;20129;-71
2022/11/04 09:54:03;;;;;;;13.10;5.95;;;;;;;10.99;90.26;100551.75;4959564;28;20590;-71
2022/11/04 09:56:39;;;;;;;8.18;4.47;;;;;;;11.02;89.15;100557.97;4950405;29;20078;-71
2022/11/04 09:59:05;;;;;;;13.00;5.20;;;;;;;11.04;88.67;100554.13;4950149;29;20129;-71
2022/11/04 10:01:50;;;;;;;16.73;4.47;;;;;;;11.05;89.31;100552.25;4951930;28;20402;-71
2022/11/04 10:04:32;;;;;;;12.63;4.65;;;;;;;11.12;90.50;100565.28;4951714;28;20101;-73
2022/11/04 10:07:19;;;;;;;10.73;5.07;;;;;;;11.11;88.96;100558.09;4950600;29;20355;-72
2022/11/04 10:10:12;;;;;;;13.52;4.78;;;;;;;11.20;90.28;100565.53;4951893;28;20043;-71
2022/11/04 10:12:46;;;;;;;14.48;5.05;;;;;;;11.28;89.15;100566.78;4951131;29;20035;-71
2022/11/04 10:15:27;;;;;;;9.85;5.32;;;;;;;11.38;89.99;100565.06;4951527;28;20133;-71
2022/11/04 10:18:16;;;;;;;11.35;5.15;;;;;;;11.50;91.07;100562.19;4950774;28;20558;-71
2022/11/04 10:20:51;;;;;;;8.48;4.22;;;;;;;11.60;90.21;100570.50;4951418;28;20502;-71
2022/11/04 10:23:25;;;;;;;17.33;4.95;;;;;;;11.71;90.00;100572.38;4941414;29;20499;-73
2022/11/04 10:26:13;;;;;;;10.80;4.80;;;;;;;11.78;88.36;100573.56;4965769;28;20110;-71
2022/11/04 10:28:51;;;;;;;13.68;5.13;;;;;;;11.85;87.93;100574.00;4964587;28;20039;-72
2022/11/04 10:31:17;;;;;;;11.15;5.32;;;;;;;11.88;87.02;100574.59;4969098;28;20035;-71
2022/11/04 10:34:27;;;;;;;13.20;5.50;;;;;;;11.97;88.22;100568.38;4969982;28;20067;-71
2022/11/04 10:36:55;;;;;;;11.80;5.00;;;;;;;12.02;87.06;100575.31;4891282;29;20045;-72
2022/11/04 10:39:33;;;;;;;10.85;5.28;;;;;;;12.08;87.34;100586.59;4905269;29;20039;-71
2022/11/04 10:41:59;;;;;;;11.25;5.68;;;;;;;12.20;86.49;100590.16;4943997;28;20141;-72
2022/11/04 10:44:27;;;;;;;19.90;7.03;;;;;;;12.31;85.86;100594.69;4969005;28;20514;-71
2022/11/04 10:47:21;;;;;;;13.45;6.20;;;;;;;12.39;85.72;100601.25;4968432;28;20042;-71
2022/11/04 10:50:08;;;;;;;13.20;6.00;;;;;;;12.52;85.77;100599.22;4967990;28;20035;-71
2022/11/04 10:52:35;;;;;;;13.93;6.95;;;;;;;12.48;81.16;100608.66;4951129;28;20110;-71
2022/11/04 10:55:00;;;;;;;15.88;6.57;;;;;;;12.58;84.71;100607.88;4965459;28;20054;-71
2022/11/04 10:57:26;;;;;;;18.23;6.88;;;;;;;12.65;83.66;100611.84;4949582;29;20443;-71
2022/11/04 10:59:57;;;;;;;12.70;6.45;;;;;;;12.63;80.21;100606.47;4951177;28;20096;-71
2022/11/04 11:02:44;;;;;;;12.02;6.45;;;;;;;12.66;81.96;100603.50;4950433;29;20507;-71
2022/11/04 11:05:16;;;;;;;14.95;7.72;;;;;;;12.88;84.86;100601.69;4957312;28;20042;-71
2022/11/04 11:07:43;;;;;;;14.05;7.35;;;;;;;12.96;81.68;100594.56;4968129;28;20454;-71
2022/11/04 11:10:18;;;;;;;11.75;7.03;;;;;;;13.14;82.68;100602.13;4950288;29;20113;-71
2022/11/04 11:12:52;;;;;;;16.13;7.07;;;;;;;13.24;83.47;100606.72;4950702;28;20032;-71
2022/11/04 11:15:40;;;;;;;9.60;6.20;;;;;;;13.15;82.84;100601.13;4950472;28;20035;-70
2022/11/04 11:18:05;;;;;;;9.88;6.15;;;;;;;13.15;81.70;100601.13;4950461;28;20045;-71
2022/11/04 11:20:32;;;;;;;15.70;6.68;;;;;;;13.17;82.53;100600.00;4959747;28;20469;-72
2022/11/04 11:22:58;;;;;;;11.05;6.85;;;;;;;13.07;81.95;100611.88;4950958;28;20043;-70
2022/11/04 11:25:32;;;;;;;14.07;7.15;;;;;;;12.96;81.51;100610.06;4950063;29;20109;-71
2022/11/04 11:28:01;;;;;;;16.38;7.53;;;;;;;12.92;80.60;100619.53;4950930;28;20046;-72
2022/11/04 11:30:35;;;;;;;17.42;6.75;;;;;;;12.91;80.43;100612.31;4953146;28;20118;-71
2022/11/04 11:33:15;;;;;;;10.48;6.57;;;;;;;12.80;79.91;100606.94;4965196;28;20065;-71
2022/11/04 11:35:51;;;;;;;11.50;7.20;;;;;;;12.73;81.48;100604.72;4951048;28;20043;-71
2022/11/04 11:38:22;;;;;;;11.88;6.78;;;;;;;12.71;81.41;100623.09;4957909;28;20066;-71
2022/11/04 11:40:51;;;;;;;15.30;6.70;;;;;;;12.64;80.36;100615.56;4954375;29;20041;-71
2022/11/04 11:43:32;;;;;;;10.20;6.53;;;;;;;12.60;82.30;100604.03;4953538;29;20027;-71
2022/11/04 11:45:59;;;;;;;11.82;6.40;;;;;;;12.54;80.48;100609.13;4952679;28;20035;-71
2022/11/04 11:48:50;;;;;;;15.85;6.80;;;;;;;12.57;82.18;100606.16;4954360;29;20035;-71
2022/11/04 11:51:24;;;;;;;10.02;6.68;;;;;;;12.65;83.00;100603.66;4969880;28;20049;-71
2022/11/04 11:54:14;;;;;;;16.77;7.15;;;;;;;12.82;83.12;100613.09;4971814;28;20043;-71
2022/11/04 11:56:43;;;;;;;17.02;8.10;;;;;;;12.97;83.23;100607.22;4955880;28;20497;-71
2022/11/04 11:59:34;;;;;;;17.77;8.73;;;;;;;13.20;83.56;100609.81;4971995;28;20034;-71
2022/11/04 12:02:21;;;;;;;19.52;10.45;;;;;;;13.24;80.58;100619.47;4972714;28;20041;-71
2022/11/04 12:04:47;;;;;;;20.08;10.85;;;;;;;13.40;82.81;100628.09;4968177;28;20047;-71
2022/11/04 12:07:41;;;;;;;17.13;10.18;;;;;;;13.54;82.51;100626.88;4953906;28;20115;-71
2022/11/04 12:10:21;;;;;;;19.58;9.68;;;;;;;13.77;80.95;100627.56;4952490;29;20046;-71
2022/11/04 12:13:04;;;;;;;15.15;9.15;;;;;;;13.94;80.92;100635.13;4952080;29;20035;-70